Portada
METAR-TAF:

METAR-TAF

Aeropuertos :

Aeropuerto Internacional Ministro Pistarini

Ezeiza, Argentina

latitud: 34-49S, longitud: 058-32W, altitud: 20 m

Observación

El informe se hizo hace 45 minutos, a las 17:00 UTC
Viento 7 kt del noreste
Temperatura 14°C
Humedad 31%
Presión 1023 hPa
Visibilidad: 9000 m

METAR: SAEZ 151700Z 05007KT 9000 NSC 14/M03 Q1023 NOSIG

Hora: 14:45 (17:45 UTC)

Pronóstico

El informe se hizo hace 6 horas y 45 minutos, a las 11:00 UTC
Pronóstico válido del 15 a las 12 UTC al 16 a las 12 UTC
Viento 5 kt del este-noreste
Visibilidad 10 km o más
sin nubes por debajo de 1500 m y sin presencia de cumulonimbus.
Evolucionando progresivamente
del 15 a las 16 UTC al 15 a las 18 UTC
Viento 10 kt del norte-noreste
Evolucionando progresivamente
del 16 a las 02 UTC al 16 a las 04 UTC
Viento 5 kt del norte-noreste

TAF: SAEZ 151100Z 1512/1612 07005KT CAVOK TX13/1518Z TN02/1512Z BECMG 1516/1518 02010KT BECMG 1602/1604 02005KT

Observaciones y pronósticos meteorológicos de más de 4000 aeropuertos (mensajes METAR y TAF).

Los puntos amarillos y rojos representan las estaciones disponibles.

Ponga el ratón en el punto deseado para ver el nombre de la estación.

Haga clic para ver las observaciones y los pronósticos meteorológicos.

Para cambiar el mapa : haga clic en los botones verdes con una cruz de color negro para hacer un zoom, en el botón verde con un guión para alejar o en las flechas verdes para mapas adyacentes.


METAR-TAF: